createdAt,value
2022-11-14T00:01:21.535Z,21.80
2022-11-14T00:03:51.610Z,23.10
2022-11-14T00:06:19.556Z,21.30
2022-11-14T00:08:47.803Z,23.07
2022-11-14T00:11:15.907Z,22.30
2022-11-14T00:13:45.219Z,23.67
2022-11-14T00:16:13.171Z,21.77
2022-11-14T00:18:41.255Z,22.33
2022-11-14T00:21:09.216Z,23.27
2022-11-14T00:23:37.479Z,21.30
2022-11-14T00:26:05.607Z,20.80
2022-11-14T00:28:33.815Z,23.33
2022-11-14T00:31:03.185Z,22.43
2022-11-14T00:33:31.187Z,23.67
2022-11-14T00:35:59.279Z,22.00
2022-11-14T00:38:27.521Z,24.33
2022-11-14T00:40:55.805Z,24.97
2022-11-14T00:43:23.776Z,24.27
2022-11-14T00:45:51.683Z,23.87
2022-11-14T00:48:21.041Z,22.53
2022-11-14T00:50:49.305Z,25.27
2022-11-14T00:53:17.392Z,23.97
2022-11-14T00:55:45.919Z,22.87
2022-11-14T00:58:13.864Z,24.20
2022-11-14T01:00:41.912Z,22.80
2022-11-14T01:03:10.620Z,23.77
2022-11-14T01:05:43.425Z,21.40
2022-11-14T01:08:11.925Z,23.43
2022-11-14T01:10:41.741Z,23.90
2022-11-14T01:13:09.996Z,23.17
2022-11-14T01:15:41.303Z,22.77
2022-11-14T01:18:09.710Z,23.20
2022-11-14T01:20:40.248Z,23.23
2022-11-14T01:23:10.664Z,22.97
2022-11-14T01:25:39.552Z,22.30
2022-11-14T01:28:08.642Z,24.40
2022-11-14T01:30:37.244Z,23.13
2022-11-14T01:33:06.543Z,22.50
2022-11-14T01:35:35.539Z,20.77
2022-11-14T01:38:04.523Z,21.53
2022-11-14T01:40:34.490Z,23.33
2022-11-14T01:43:28.360Z,24.40
2022-11-14T01:45:59.051Z,22.47
2022-11-14T01:48:32.750Z,22.27
2022-11-14T01:51:05.163Z,23.07
2022-11-14T01:53:33.643Z,22.70
2022-11-14T01:56:06.834Z,21.70
2022-11-14T01:58:38.160Z,21.03
2022-11-14T02:01:06.382Z,22.40
2022-11-14T02:03:37.066Z,22.17
2022-11-14T02:06:07.820Z,22.37
2022-11-14T02:08:36.388Z,22.30
2022-11-14T02:11:06.106Z,21.17
2022-11-14T02:13:34.363Z,20.47
2022-11-14T02:16:02.455Z,24.10
2022-11-14T02:18:30.781Z,22.63
2022-11-14T02:21:00.957Z,23.30
2022-11-14T02:23:31.093Z,22.00
2022-11-14T02:25:59.776Z,21.33
2022-11-14T02:28:28.751Z,21.67
2022-11-14T02:30:57.351Z,22.80
2022-11-14T02:33:25.432Z,22.67
2022-11-14T02:35:53.554Z,20.27
2022-11-14T02:38:22.845Z,21.73
2022-11-14T02:40:50.829Z,21.60
2022-11-14T02:43:18.858Z,21.83
2022-11-14T02:45:46.886Z,23.47
2022-11-14T02:48:15.074Z,22.87
2022-11-14T02:50:43.150Z,23.87
2022-11-14T02:53:11.439Z,22.10
2022-11-14T02:55:40.799Z,20.33
2022-11-14T02:58:08.979Z,21.23
2022-11-14T03:00:53.330Z,23.90
2022-11-14T03:03:25.074Z,23.33
2022-11-14T03:05:53.467Z,23.90
2022-11-14T03:08:21.503Z,21.33
2022-11-14T03:10:51.332Z,21.90
2022-11-14T03:13:19.398Z,23.27
2022-11-14T03:15:47.509Z,21.27
2022-11-14T03:18:15.868Z,21.87
2022-11-14T03:20:43.874Z,21.17
2022-11-14T03:23:12.188Z,22.73
2022-11-14T03:25:40.349Z,22.97
2022-11-14T03:28:09.744Z,22.00
2022-11-14T03:30:38.018Z,24.10
2022-11-14T03:33:06.101Z,22.77
2022-11-14T03:35:34.068Z,22.53
2022-11-14T03:38:02.071Z,21.97
2022-11-14T03:40:30.902Z,20.90
2022-11-14T03:42:59.013Z,20.77
2022-11-14T03:45:28.580Z,23.30
2022-11-14T03:47:56.680Z,22.23
2022-11-14T03:50:24.904Z,21.57
2022-11-14T03:52:52.934Z,21.03
2022-11-14T03:55:21.365Z,22.03
2022-11-14T03:57:49.367Z,20.60
2022-11-14T04:00:18.145Z,22.17
2022-11-14T04:02:47.707Z,22.30
2022-11-14T04:05:15.834Z,22.80
2022-11-14T04:07:43.867Z,22.37
2022-11-14T04:10:11.924Z,21.43
2022-11-14T04:12:39.975Z,23.30
2022-11-14T04:15:09.038Z,23.63
2022-11-14T04:17:39.951Z,22.73
2022-11-14T04:20:10.833Z,21.53
2022-11-14T04:22:38.954Z,21.70
2022-11-14T04:25:08.655Z,22.77
2022-11-14T04:27:36.957Z,22.87
2022-11-14T04:30:06.220Z,22.10
2022-11-14T04:32:34.206Z,23.03
2022-11-14T04:35:02.183Z,22.73
2022-11-14T04:37:31.636Z,23.00
2022-11-14T04:40:02.369Z,21.63
2022-11-14T04:42:30.444Z,22.13
2022-11-14T04:44:58.535Z,22.10
2022-11-14T04:47:26.835Z,22.37
2022-11-14T04:49:54.862Z,23.10
2022-11-14T04:52:22.994Z,23.33
2022-11-14T04:54:52.322Z,22.53
2022-11-14T04:57:20.260Z,22.97
2022-11-14T04:59:48.436Z,23.53
2022-11-14T05:02:16.527Z,24.03
2022-11-14T05:04:45.718Z,24.70
2022-11-14T05:07:14.212Z,23.60
2022-11-14T05:09:42.225Z,21.87
2022-11-14T05:12:11.541Z,22.70
2022-11-14T05:14:39.634Z,21.37
2022-11-14T05:17:07.616Z,22.80
2022-11-14T05:19:35.612Z,24.60
2022-11-14T05:22:04.049Z,25.37
2022-11-14T05:24:32.188Z,23.90
2022-11-14T05:27:00.441Z,24.63
2022-11-14T05:29:29.946Z,23.63
2022-11-14T05:31:58.090Z,23.13
2022-11-14T05:34:26.235Z,24.83
2022-11-14T05:36:54.561Z,25.53
2022-11-14T05:39:22.575Z,23.87
2022-11-14T05:41:50.493Z,25.40
2022-11-14T05:44:18.496Z,25.53
2022-11-14T05:46:48.144Z,25.90
2022-11-14T05:49:20.721Z,24.93
2022-11-14T05:51:49.936Z,23.73
2022-11-14T05:54:17.947Z,23.17
2022-11-14T05:56:45.947Z,22.47
2022-11-14T05:59:14.037Z,25.70
2022-11-14T06:01:42.090Z,26.77
2022-11-14T06:04:13.056Z,25.77
2022-11-14T06:06:41.133Z,24.77
2022-11-14T06:09:09.328Z,23.90
2022-11-14T06:11:37.255Z,25.20
2022-11-14T06:14:10.506Z,26.03
2022-11-14T06:16:39.316Z,24.60
2022-11-14T06:19:07.685Z,25.70
2022-11-14T06:21:37.106Z,23.60
2022-11-14T06:24:05.695Z,24.47
2022-11-14T06:26:34.437Z,26.67
2022-11-14T06:29:02.449Z,25.20
2022-11-14T06:31:30.808Z,24.80
2022-11-14T06:34:00.769Z,24.80
2022-11-14T06:36:30.418Z,24.90
2022-11-14T06:38:59.766Z,25.27
2022-11-14T06:41:27.857Z,23.97
2022-11-14T06:43:55.946Z,26.97
2022-11-14T06:46:24.616Z,23.97
2022-11-14T06:48:53.064Z,26.80
2022-11-14T06:51:21.051Z,26.23
2022-11-14T06:53:49.036Z,25.90
2022-11-14T06:56:20.286Z,27.03
2022-11-14T06:58:49.799Z,25.63
2022-11-14T07:01:19.509Z,24.90
2022-11-14T07:03:48.128Z,25.27
2022-11-14T07:06:19.136Z,26.70
2022-11-14T07:08:47.558Z,24.53
2022-11-14T07:11:22.925Z,25.17
2022-11-14T07:13:53.504Z,25.40
2022-11-14T07:16:24.575Z,23.80
2022-11-14T07:18:52.528Z,26.80
2022-11-14T07:21:20.806Z,27.90
2022-11-14T07:23:49.057Z,25.73
2022-11-14T07:26:17.044Z,22.93
2022-11-14T07:28:51.822Z,26.20
2022-11-14T07:31:22.895Z,27.20
2022-11-14T07:33:50.982Z,27.60
2022-11-14T07:36:19.295Z,26.43
2022-11-14T07:38:47.689Z,27.63
2022-11-14T07:41:17.231Z,27.40
2022-11-14T07:43:45.444Z,27.03
2022-11-14T07:46:14.814Z,26.83
2022-11-14T07:48:44.156Z,27.43
2022-11-14T07:51:16.421Z,26.50
2022-11-14T07:53:44.718Z,25.90
2022-11-14T07:56:13.045Z,26.17
2022-11-14T07:58:42.433Z,26.03
2022-11-14T08:01:13.315Z,29.37
2022-11-14T08:03:46.082Z,26.90
2022-11-14T08:06:15.697Z,26.70
2022-11-14T08:08:43.832Z,26.20
2022-11-14T08:11:12.415Z,26.87
2022-11-14T08:13:40.383Z,27.27
2022-11-14T08:16:13.378Z,27.33
2022-11-14T08:18:43.578Z,29.47
2022-11-14T08:21:11.867Z,27.03
2022-11-14T08:23:39.899Z,29.70
2022-11-14T08:26:08.016Z,27.43
2022-11-14T08:28:36.001Z,27.30
2022-11-14T08:31:05.123Z,27.40
2022-11-14T08:33:33.239Z,27.30
2022-11-14T08:36:03.649Z,26.57
2022-11-14T08:38:33.618Z,27.00
2022-11-14T08:41:02.227Z,28.20
2022-11-14T08:43:30.797Z,27.70
2022-11-14T08:46:01.910Z,27.07
2022-11-14T08:48:30.904Z,26.10
2022-11-14T08:50:59.646Z,26.97
2022-11-14T08:53:29.282Z,27.30
2022-11-14T08:55:57.268Z,27.27
2022-11-14T08:58:25.233Z,27.07
2022-11-14T09:00:53.576Z,28.67
2022-11-14T09:03:21.768Z,26.47
2022-11-14T09:05:53.202Z,26.87
2022-11-14T09:08:21.948Z,28.90
2022-11-14T09:10:51.498Z,27.60
2022-11-14T09:13:19.669Z,27.50
2022-11-14T09:15:47.775Z,26.53
2022-11-14T09:18:16.407Z,27.43
2022-11-14T09:20:44.358Z,27.10
2022-11-14T09:23:12.733Z,26.23
2022-11-14T09:25:40.730Z,26.07
2022-11-14T09:28:11.028Z,27.07
2022-11-14T09:30:40.242Z,26.00
2022-11-14T09:33:11.637Z,27.10
2022-11-14T09:35:40.322Z,25.90
2022-11-14T09:38:10.475Z,27.00
2022-11-14T09:40:53.458Z,26.63
2022-11-14T09:43:43.219Z,28.60
2022-11-14T09:46:20.251Z,25.47
2022-11-14T09:48:48.607Z,27.87
2022-11-14T09:51:20.691Z,27.53
2022-11-14T09:53:54.568Z,31.07
2022-11-14T09:56:26.357Z,26.50
2022-11-14T09:58:57.527Z,27.77
2022-11-14T10:01:37.534Z,26.67
2022-11-14T10:04:15.539Z,27.93
2022-11-14T10:06:52.631Z,26.27
2022-11-14T10:09:42.734Z,29.80
2022-11-14T10:12:16.427Z,27.77
2022-11-14T10:15:11.821Z,26.53
2022-11-14T10:18:04.067Z,25.63
2022-11-14T10:20:38.195Z,25.17
2022-11-14T10:23:24.073Z,25.27
2022-11-14T10:25:57.299Z,26.50
2022-11-14T10:28:43.112Z,27.27
2022-11-14T10:31:24.327Z,25.37
2022-11-14T10:34:00.685Z,24.23
2022-11-14T10:36:50.771Z,24.77
2022-11-14T10:39:23.210Z,26.23
2022-11-14T10:42:01.028Z,24.03
2022-11-14T10:44:37.254Z,25.47
2022-11-14T10:47:13.978Z,26.53
2022-11-14T10:49:42.962Z,25.37
2022-11-14T10:52:15.742Z,23.90
2022-11-14T10:54:48.658Z,24.37
2022-11-14T10:57:18.875Z,25.37
2022-11-14T10:59:47.281Z,23.43
2022-11-14T11:02:18.281Z,25.90
2022-11-14T11:04:47.066Z,24.97
2022-11-14T11:07:40.257Z,28.03
2022-11-14T11:10:37.543Z,23.23
2022-11-14T11:13:06.123Z,23.97
2022-11-14T11:15:41.253Z,26.53
2022-11-14T11:18:27.893Z,24.00
2022-11-14T11:21:11.098Z,24.17
2022-11-14T11:23:49.942Z,23.00
2022-11-14T11:26:20.889Z,24.10
2022-11-14T11:29:04.340Z,21.90
2022-11-14T11:31:51.489Z,23.70
2022-11-14T11:34:26.955Z,23.40
2022-11-14T11:36:59.615Z,22.20
2022-11-14T11:39:31.228Z,23.40
2022-11-14T11:42:10.891Z,23.80
2022-11-14T11:44:44.827Z,24.20
2022-11-14T11:47:16.520Z,22.53
2022-11-14T11:49:53.298Z,23.20
2022-11-14T11:52:32.096Z,22.07
2022-11-14T11:55:05.077Z,23.13
2022-11-14T11:57:37.820Z,21.57
2022-11-14T12:00:09.384Z,24.07
2022-11-14T12:02:49.328Z,23.30
2022-11-14T12:05:26.878Z,22.43
2022-11-14T12:08:04.264Z,22.63
2022-11-14T12:10:37.397Z,22.83
2022-11-14T12:13:33.581Z,22.37
2022-11-14T12:16:23.639Z,23.53
2022-11-14T12:19:26.018Z,22.40
2022-11-14T12:22:12.388Z,22.73
2022-11-14T12:25:00.187Z,22.60
2022-11-14T12:27:43.381Z,21.67
2022-11-14T12:30:16.856Z,23.00
2022-11-14T12:32:49.340Z,21.97
2022-11-14T12:35:21.437Z,21.37
2022-11-14T12:37:55.844Z,21.47
2022-11-14T12:40:28.822Z,23.13
2022-11-14T12:42:58.298Z,22.97
2022-11-14T12:45:58.425Z,22.67
2022-11-14T12:48:33.173Z,23.63
2022-11-14T12:51:02.102Z,22.73
2022-11-14T12:53:47.099Z,21.67
2022-11-14T12:56:52.708Z,22.93
2022-11-14T12:59:38.920Z,21.90
2022-11-14T13:02:45.748Z,21.23
2022-11-14T13:05:49.284Z,20.30
2022-11-14T13:08:34.971Z,21.27
2022-11-14T13:11:55.055Z,23.80
2022-11-14T13:14:40.742Z,21.30
2022-11-14T13:17:41.861Z,23.23
2022-11-14T13:20:49.732Z,24.63
2022-11-14T13:23:51.650Z,21.67
2022-11-14T13:26:55.145Z,21.03
2022-11-14T13:30:00.225Z,22.10
2022-11-14T13:32:58.249Z,22.57
2022-11-14T13:35:46.883Z,22.40
2022-11-14T13:38:45.569Z,22.07
2022-11-14T13:41:47.587Z,22.00
2022-11-14T13:45:01.418Z,22.43
2022-11-14T13:48:12.275Z,22.23
2022-11-14T13:50:43.012Z,23.37
2022-11-14T13:53:17.049Z,21.30
2022-11-14T13:55:57.240Z,22.53
2022-11-14T13:58:42.864Z,23.03
2022-11-14T14:01:23.384Z,21.47
2022-11-14T14:04:07.488Z,23.30
2022-11-14T14:06:46.060Z,22.20
2022-11-14T14:09:23.125Z,23.10
2022-11-14T14:12:21.985Z,23.93
2022-11-14T14:15:10.075Z,21.03
2022-11-14T14:17:50.629Z,21.93
2022-11-14T14:20:32.666Z,23.23
2022-11-14T14:23:09.967Z,22.53
2022-11-14T14:25:46.674Z,21.73
2022-11-14T14:28:21.714Z,22.00
2022-11-14T14:31:10.796Z,22.17
2022-11-14T14:33:44.840Z,24.40
2022-11-14T14:36:21.769Z,20.20
2022-11-14T14:38:50.761Z,20.43
2022-11-14T14:41:20.994Z,20.23
2022-11-14T14:43:56.087Z,22.93
2022-11-14T14:46:30.217Z,19.87
2022-11-14T14:49:03.683Z,20.57
2022-11-14T14:51:33.280Z,23.03
2022-11-14T14:54:01.417Z,23.60
2022-11-14T14:56:29.831Z,23.60
2022-11-14T14:58:58.228Z,23.17
2022-11-14T15:01:32.872Z,22.70
2022-11-14T15:04:06.013Z,22.33
2022-11-14T15:06:36.376Z,22.40
2022-11-14T15:09:11.176Z,23.40
2022-11-14T15:11:43.654Z,21.73
2022-11-14T15:14:15.085Z,22.73
2022-11-14T15:16:43.944Z,22.70
2022-11-14T15:19:16.083Z,20.87
2022-11-14T15:21:44.352Z,21.30
2022-11-14T15:24:16.617Z,22.57
2022-11-14T15:26:46.004Z,23.00
2022-11-14T15:29:19.583Z,21.23
2022-11-14T15:31:49.840Z,21.60
2022-11-14T15:34:28.824Z,23.07
2022-11-14T15:37:23.438Z,20.83
2022-11-14T15:39:51.466Z,21.30
2022-11-14T15:42:29.374Z,20.73
2022-11-14T15:44:57.413Z,22.57
2022-11-14T15:47:26.763Z,22.77
2022-11-14T15:50:00.481Z,21.67
2022-11-14T15:52:36.136Z,19.90
2022-11-14T15:55:10.503Z,19.80
2022-11-14T15:57:39.173Z,19.93
2022-11-14T16:00:08.324Z,22.83
2022-11-14T16:02:46.200Z,22.10
2022-11-14T16:05:16.865Z,22.33
2022-11-14T16:07:45.020Z,22.63
2022-11-14T16:10:15.915Z,21.73
2022-11-14T16:12:47.969Z,22.03
2022-11-14T16:15:20.481Z,23.00
2022-11-14T16:17:50.131Z,20.97
2022-11-14T16:20:21.710Z,21.33
2022-11-14T16:22:50.787Z,18.10
2022-11-14T16:25:20.973Z,20.77
2022-11-14T16:27:49.045Z,21.87
2022-11-14T16:30:19.324Z,21.40
2022-11-14T16:32:49.305Z,21.73
2022-11-14T16:35:20.366Z,21.77
2022-11-14T16:37:48.937Z,23.57
2022-11-14T16:40:19.389Z,25.67
2022-11-14T16:42:48.024Z,23.03
2022-11-14T16:45:16.334Z,24.00
2022-11-14T16:47:44.748Z,23.20
2022-11-14T16:50:12.712Z,24.43
2022-11-14T16:52:42.043Z,22.87
2022-11-14T16:55:11.500Z,22.60
2022-11-14T16:57:39.965Z,21.63
2022-11-14T17:00:10.588Z,22.20
2022-11-14T17:02:39.301Z,22.60
2022-11-14T17:05:09.292Z,24.47
2022-11-14T17:07:37.660Z,23.83
2022-11-14T17:10:08.386Z,23.43
2022-11-14T17:12:36.466Z,24.07
2022-11-14T17:15:04.973Z,23.80
2022-11-14T17:17:33.143Z,22.37
2022-11-14T17:20:01.133Z,22.87
2022-11-14T17:22:29.642Z,23.00
2022-11-14T17:24:57.736Z,21.43
2022-11-14T17:27:27.083Z,22.73
2022-11-14T17:29:55.040Z,22.77
2022-11-14T17:32:23.379Z,20.07
2022-11-14T17:34:51.426Z,22.53
2022-11-14T17:37:19.438Z,21.40
2022-11-14T17:39:47.575Z,22.07
2022-11-14T17:42:15.968Z,21.10
2022-11-14T17:44:45.304Z,22.70
2022-11-14T17:47:13.496Z,23.33
2022-11-14T17:49:41.456Z,23.43
2022-11-14T17:52:09.489Z,23.50
2022-11-14T17:54:38.880Z,24.37
2022-11-14T17:57:07.702Z,22.53
2022-11-14T17:59:36.470Z,22.43
2022-11-14T18:02:06.163Z,22.80
2022-11-14T18:04:34.179Z,24.07
2022-11-14T18:07:02.279Z,23.27
2022-11-14T18:09:30.515Z,22.70
2022-11-14T18:11:58.587Z,21.03
2022-11-14T18:14:26.630Z,24.93
2022-11-14T18:19:44.115Z,24.33
2022-11-14T18:22:13.079Z,23.47
2022-11-14T18:24:46.708Z,25.27
2022-11-14T18:27:15.048Z,24.87
2022-11-14T18:29:43.451Z,26.10
2022-11-14T18:32:11.482Z,23.80
2022-11-14T18:34:40.865Z,24.80
2022-11-14T18:37:10.226Z,24.40
2022-11-14T18:39:38.314Z,23.93
2022-11-14T18:42:06.855Z,23.20
2022-11-14T18:45:01.451Z,25.23
2022-11-14T18:47:31.721Z,24.10
2022-11-14T18:50:04.919Z,23.07
2022-11-14T18:55:56.930Z,24.13
2022-11-14T18:58:31.414Z,22.73
2022-11-14T19:01:00.922Z,24.67
2022-11-14T19:03:42.544Z,22.63
2022-11-14T19:06:16.472Z,23.17
2022-11-14T19:08:47.235Z,21.27
2022-11-14T19:11:39.106Z,22.33
2022-11-14T19:14:24.347Z,22.13
2022-11-14T19:17:06.793Z,21.43
2022-11-14T19:54:44.973Z,22.03
2022-11-14T19:57:25.837Z,21.83
2022-11-14T19:59:55.172Z,20.63
2022-11-14T20:02:31.570Z,23.83
2022-11-14T20:05:02.922Z,22.90
2022-11-14T20:07:35.384Z,22.30
2022-11-14T20:10:04.332Z,22.30
2022-11-14T20:12:38.969Z,21.50
2022-11-14T20:15:10.420Z,22.33
2022-11-14T20:17:46.791Z,23.43
2022-11-14T20:20:20.283Z,20.67
2022-11-14T20:22:52.593Z,22.03
2022-11-14T20:25:35.989Z,20.87
2022-11-14T20:31:03.774Z,21.37
2022-11-14T20:33:40.047Z,20.53
2022-11-14T20:36:15.156Z,20.63
2022-11-14T20:38:48.829Z,22.40
2022-11-14T20:41:22.645Z,20.90
2022-11-14T20:43:52.988Z,19.67
2022-11-14T20:46:23.110Z,19.53
2022-11-14T20:52:32.832Z,19.93
2022-11-14T20:55:11.556Z,19.80
2022-11-14T20:57:40.650Z,19.97
2022-11-14T21:00:12.400Z,19.00
2022-11-14T21:02:41.950Z,18.37
2022-11-14T21:05:12.034Z,18.73
2022-11-14T21:07:41.760Z,19.03
2022-11-14T21:10:31.287Z,18.47
2022-11-14T21:13:30.183Z,19.70
2022-11-14T21:16:05.543Z,18.93
2022-11-14T21:18:35.768Z,18.57
2022-11-14T21:21:14.181Z,20.03
2022-11-14T21:23:49.359Z,17.87
2022-11-14T21:26:28.385Z,17.70
2022-11-14T21:32:07.988Z,17.27
2022-11-14T21:34:47.602Z,17.13
2022-11-14T21:37:24.302Z,19.53
2022-11-14T21:39:58.882Z,17.77
2022-11-14T21:48:41.251Z,18.43
2022-11-14T21:51:50.479Z,16.63
2022-11-14T21:57:26.377Z,18.83
2022-11-14T21:59:56.591Z,18.20
2022-11-14T22:02:45.833Z,18.13
2022-11-14T22:05:15.526Z,17.17
2022-11-14T22:07:43.634Z,17.80
2022-11-14T22:10:12.274Z,17.83
2022-11-14T22:12:40.727Z,18.03
2022-11-14T22:15:10.800Z,18.17
2022-11-14T22:17:39.781Z,17.60
2022-11-14T22:20:10.213Z,18.37
2022-11-14T22:22:40.349Z,18.57
2022-11-14T22:25:09.754Z,16.83
2022-11-14T22:27:38.846Z,17.30
2022-11-14T22:30:08.403Z,17.63
2022-11-14T22:32:37.467Z,16.83
2022-11-14T22:35:09.734Z,18.37
2022-11-14T22:37:40.948Z,17.83
2022-11-14T22:40:12.051Z,17.77
2022-11-14T22:42:40.862Z,16.47
2022-11-14T22:45:11.362Z,16.37
2022-11-14T22:47:40.554Z,18.23
2022-11-14T22:50:11.089Z,17.07
2022-11-14T22:52:40.595Z,17.50
2022-11-14T22:55:13.716Z,17.60
2022-11-14T22:57:44.781Z,17.77
2022-11-14T23:00:15.162Z,16.83
2022-11-14T23:02:43.110Z,16.47
2022-11-14T23:05:11.048Z,15.73
2022-11-14T23:07:40.622Z,16.93
2022-11-14T23:10:09.629Z,17.03
2022-11-14T23:12:37.686Z,17.17
2022-11-14T23:15:06.557Z,16.53
2022-11-14T23:17:34.495Z,16.40
2022-11-14T23:20:02.431Z,15.73
2022-11-14T23:22:30.831Z,17.03
2022-11-14T23:25:00.144Z,17.27
2022-11-14T23:27:28.220Z,15.57
2022-11-14T23:29:56.624Z,16.80
2022-11-14T23:32:24.629Z,15.10
2022-11-14T23:34:52.600Z,16.37
2022-11-14T23:37:20.640Z,15.80
2022-11-14T23:39:48.785Z,15.03
2022-11-14T23:42:18.092Z,16.27
2022-11-14T23:44:46.575Z,15.37
2022-11-14T23:47:15.172Z,15.70
2022-11-14T23:49:43.088Z,15.40
2022-11-14T23:52:11.564Z,15.07
2022-11-14T23:54:39.553Z,15.93
2022-11-14T23:57:07.539Z,14.70
2022-11-14T23:59:36.985Z,15.07
